createdAt,value
2024-01-15T00:00:30.998Z,4.00
2024-01-15T00:02:58.445Z,4.10
2024-01-15T00:05:25.510Z,4.10
2024-01-15T00:07:52.398Z,4.00
2024-01-15T00:10:19.261Z,4.00
2024-01-15T00:12:46.262Z,4.10
2024-01-15T00:15:13.218Z,4.10
2024-01-15T00:17:40.276Z,4.10
2024-01-15T00:20:07.986Z,4.10
2024-01-15T00:22:36.652Z,4.10
2024-01-15T00:25:04.304Z,4.10
2024-01-15T00:27:31.324Z,4.10
2024-01-15T00:29:58.329Z,4.10
2024-01-15T00:32:25.288Z,4.00
2024-01-15T00:35:01.462Z,4.00
2024-01-15T00:37:28.348Z,4.00
2024-01-15T00:39:55.244Z,4.00
2024-01-15T00:42:22.179Z,4.00
2024-01-15T00:44:49.035Z,4.00
2024-01-15T00:47:16.020Z,4.00
2024-01-15T00:49:43.174Z,3.90
2024-01-15T00:52:10.099Z,4.00
2024-01-15T00:54:37.499Z,4.00
2024-01-15T00:57:04.823Z,4.00
2024-01-15T00:59:31.743Z,4.00
2024-01-15T01:01:58.796Z,4.00
2024-01-15T01:04:25.784Z,4.00
2024-01-15T01:07:02.043Z,3.90
2024-01-15T01:09:31.221Z,3.90
2024-01-15T01:11:58.400Z,3.90
2024-01-15T01:14:25.502Z,3.90
2024-01-15T01:16:52.370Z,4.00
2024-01-15T01:19:19.522Z,3.90
2024-01-15T01:21:46.732Z,3.90
2024-01-15T01:24:13.708Z,3.90
2024-01-15T01:26:42.408Z,3.90
2024-01-15T01:29:09.447Z,3.90
2024-01-15T01:31:36.441Z,3.90
2024-01-15T01:34:03.522Z,3.90
2024-01-15T01:36:32.412Z,4.00
2024-01-15T01:38:59.304Z,4.00
2024-01-15T01:41:26.231Z,4.00
2024-01-15T01:43:53.063Z,3.90
2024-01-15T01:46:20.042Z,3.90
2024-01-15T01:48:47.048Z,4.00
2024-01-15T01:51:15.577Z,3.90
2024-01-15T01:53:45.437Z,4.00
2024-01-15T01:56:14.237Z,4.10
2024-01-15T01:58:41.260Z,4.00
2024-01-15T02:01:08.521Z,4.10
2024-01-15T02:03:36.022Z,4.10
2024-01-15T02:06:03.034Z,4.10
2024-01-15T02:08:30.485Z,4.10
2024-01-15T02:10:57.456Z,4.20
2024-01-15T02:13:24.380Z,4.20
2024-01-15T02:15:51.462Z,4.20
2024-01-15T02:18:18.670Z,4.30
2024-01-15T02:20:45.689Z,4.20
2024-01-15T02:23:14.522Z,4.40
2024-01-15T02:25:44.653Z,4.40
2024-01-15T02:28:12.828Z,4.40
2024-01-15T02:30:41.149Z,4.40
2024-01-15T02:33:09.750Z,4.30
2024-01-15T02:35:40.275Z,4.30
2024-01-15T02:38:07.992Z,4.40
2024-01-15T02:40:35.411Z,4.30
2024-01-15T02:43:02.451Z,4.30
2024-01-15T02:45:29.520Z,4.40
2024-01-15T02:47:56.631Z,4.40
2024-01-15T02:50:23.568Z,4.40
2024-01-15T02:52:50.648Z,4.40
2024-01-15T02:55:17.780Z,4.30
2024-01-15T02:57:45.004Z,4.40
2024-01-15T03:00:12.993Z,4.30
2024-01-15T03:02:43.671Z,4.40
2024-01-15T03:05:12.298Z,4.30
2024-01-15T03:07:39.301Z,4.40
2024-01-15T03:10:07.392Z,4.20
2024-01-15T03:12:34.475Z,4.20
2024-01-15T03:15:01.493Z,4.20
2024-01-15T03:17:28.812Z,4.20
2024-01-15T03:19:55.894Z,4.20
2024-01-15T03:22:22.850Z,4.30
2024-01-15T03:24:49.788Z,4.30
2024-01-15T03:27:16.997Z,4.30
2024-01-15T03:29:43.947Z,4.20
2024-01-15T03:32:11.005Z,4.30
2024-01-15T03:34:38.056Z,4.20
2024-01-15T03:37:05.185Z,4.40
2024-01-15T03:39:32.166Z,4.40
2024-01-15T03:41:59.208Z,4.40
2024-01-15T03:44:26.137Z,4.40
2024-01-15T03:46:53.551Z,4.40
2024-01-15T03:49:20.787Z,4.40
2024-01-15T03:51:47.847Z,4.40
2024-01-15T03:54:15.729Z,4.40
2024-01-15T03:56:43.521Z,4.40
2024-01-15T03:59:10.400Z,4.40
2024-01-15T04:01:37.275Z,4.60
2024-01-15T04:04:04.380Z,4.60
2024-01-15T04:06:31.394Z,4.50
2024-01-15T04:08:58.409Z,4.50
2024-01-15T04:11:25.321Z,4.60
2024-01-15T04:13:52.249Z,4.60
2024-01-15T04:16:19.138Z,4.50
2024-01-15T04:18:46.124Z,4.50
2024-01-15T04:21:13.134Z,4.40
2024-01-15T04:23:40.631Z,4.50
2024-01-15T04:26:07.464Z,4.50
2024-01-15T04:28:34.347Z,4.40
2024-01-15T04:31:01.345Z,4.40
2024-01-15T04:33:28.502Z,4.50
2024-01-15T04:35:55.534Z,4.50
2024-01-15T04:38:22.414Z,4.40
2024-01-15T04:40:49.274Z,4.60
2024-01-15T04:43:16.149Z,4.50
2024-01-15T04:45:43.279Z,4.60
2024-01-15T04:48:10.316Z,4.60
2024-01-15T04:50:37.182Z,4.60
2024-01-15T04:53:04.167Z,4.70
2024-01-15T04:55:31.095Z,4.50
2024-01-15T04:57:58.041Z,4.50
2024-01-15T05:00:25.082Z,4.50
2024-01-15T05:02:52.038Z,4.60
2024-01-15T05:05:19.069Z,4.50
2024-01-15T05:07:46.166Z,4.50
2024-01-15T05:10:13.120Z,4.50
2024-01-15T05:12:39.994Z,4.60
2024-01-15T05:15:07.110Z,4.60
2024-01-15T05:17:34.076Z,4.50
2024-01-15T05:20:01.213Z,4.50
2024-01-15T05:22:28.452Z,4.50
2024-01-15T05:24:55.347Z,4.50
2024-01-15T05:27:22.353Z,4.50
2024-01-15T05:29:49.243Z,4.50
2024-01-15T05:32:16.160Z,4.40
2024-01-15T05:34:43.096Z,4.40
2024-01-15T05:37:10.005Z,4.40
2024-01-15T05:39:36.915Z,4.40
2024-01-15T05:42:03.985Z,4.30
2024-01-15T05:44:31.014Z,4.30
2024-01-15T05:46:57.869Z,4.30
2024-01-15T05:49:24.799Z,4.20
2024-01-15T05:51:52.457Z,4.20
2024-01-15T05:54:22.540Z,4.20
2024-01-15T05:56:49.633Z,4.20
2024-01-15T05:59:16.564Z,4.20
2024-01-15T06:01:43.473Z,4.10
2024-01-15T06:04:10.927Z,4.10
2024-01-15T06:06:38.031Z,4.10
2024-01-15T06:09:06.434Z,4.10
2024-01-15T06:11:33.842Z,4.10
2024-01-15T06:14:01.532Z,4.10
2024-01-15T06:16:29.232Z,4.20
2024-01-15T06:18:56.248Z,4.20
2024-01-15T06:21:23.424Z,4.10
2024-01-15T06:23:50.440Z,4.10
2024-01-15T06:26:17.349Z,4.10
2024-01-15T06:28:44.289Z,4.10
2024-01-15T06:31:11.569Z,4.20
2024-01-15T06:33:39.343Z,4.20
2024-01-15T06:36:07.254Z,4.20
2024-01-15T06:38:34.477Z,4.20
2024-01-15T06:41:02.245Z,4.10
2024-01-15T06:43:29.158Z,4.10
2024-01-15T06:45:56.287Z,4.10
2024-01-15T06:48:23.494Z,4.00
2024-01-15T06:50:50.551Z,4.10
2024-01-15T06:53:17.515Z,4.00
2024-01-15T06:55:44.356Z,4.20
2024-01-15T06:58:11.231Z,4.00
2024-01-15T07:00:39.026Z,4.20
2024-01-15T07:03:06.219Z,3.90
2024-01-15T07:05:33.368Z,3.90
2024-01-15T07:08:00.479Z,4.00
2024-01-15T07:10:27.527Z,3.90
2024-01-15T07:12:54.833Z,3.90
2024-01-15T07:15:21.992Z,3.90
2024-01-15T07:17:48.979Z,3.90
2024-01-15T07:20:16.596Z,3.90
2024-01-15T07:22:43.570Z,4.00
2024-01-15T07:25:10.522Z,3.90
2024-01-15T07:27:37.377Z,3.90
2024-01-15T07:30:06.708Z,3.90
2024-01-15T07:32:34.373Z,3.90
2024-01-15T07:35:01.257Z,3.80
2024-01-15T07:37:28.341Z,4.00
2024-01-15T07:39:55.321Z,3.80
2024-01-15T07:42:22.321Z,3.90
2024-01-15T07:44:49.307Z,3.80
2024-01-15T07:47:16.162Z,3.80
2024-01-15T07:49:43.249Z,3.80
2024-01-15T07:52:11.123Z,3.80
2024-01-15T07:54:38.069Z,3.90
2024-01-15T07:57:05.068Z,3.70
2024-01-15T07:59:32.073Z,3.70
2024-01-15T08:02:00.875Z,3.60
2024-01-15T08:04:28.421Z,3.70
2024-01-15T08:06:55.923Z,3.60
2024-01-15T08:09:23.189Z,3.80
2024-01-15T08:11:50.669Z,3.80
2024-01-15T08:14:18.553Z,3.80
2024-01-15T08:16:45.513Z,3.80
2024-01-15T08:19:12.784Z,3.90
2024-01-15T08:21:39.911Z,3.90
2024-01-15T08:24:07.187Z,3.80
2024-01-15T08:26:34.166Z,3.80
2024-01-15T08:29:01.203Z,4.00
2024-01-15T08:31:28.952Z,3.90
2024-01-15T08:33:56.852Z,3.90
2024-01-15T08:36:25.330Z,3.90
2024-01-15T08:38:52.322Z,3.80
2024-01-15T08:41:19.235Z,3.80
2024-01-15T08:43:46.094Z,3.80
2024-01-15T08:46:13.007Z,3.80
2024-01-15T08:48:40.917Z,3.80
2024-01-15T08:51:09.424Z,3.80
2024-01-15T08:53:36.527Z,3.70
2024-01-15T08:56:03.503Z,3.70
2024-01-15T08:58:30.406Z,3.80
2024-01-15T09:00:57.758Z,3.70
2024-01-15T09:03:24.856Z,3.60
2024-01-15T09:05:52.312Z,3.70
2024-01-15T09:08:19.587Z,3.80
2024-01-15T09:10:47.180Z,3.70
2024-01-15T09:13:14.213Z,3.80
2024-01-15T09:15:41.266Z,3.70
2024-01-15T09:18:08.813Z,3.80
2024-01-15T09:20:36.760Z,3.80
2024-01-15T09:23:03.915Z,3.80
2024-01-15T09:25:31.006Z,3.90
2024-01-15T09:27:58.412Z,3.90
2024-01-15T09:30:25.511Z,3.90
2024-01-15T09:32:52.638Z,3.90
2024-01-15T09:35:21.285Z,3.90
2024-01-15T09:37:48.975Z,4.00
2024-01-15T09:40:17.094Z,3.90
2024-01-15T09:42:46.786Z,3.90
2024-01-15T09:45:14.489Z,3.80
2024-01-15T09:47:45.488Z,3.70
2024-01-15T09:50:16.096Z,3.90
2024-01-15T09:52:45.258Z,3.70
2024-01-15T09:55:13.109Z,3.70
2024-01-15T09:57:41.031Z,3.60
2024-01-15T10:00:12.138Z,3.70
2024-01-15T10:02:39.255Z,3.70
2024-01-15T10:05:06.556Z,3.70
2024-01-15T10:07:37.156Z,3.70
2024-01-15T10:10:08.593Z,3.80
2024-01-15T10:12:36.147Z,3.80
2024-01-15T10:15:03.578Z,3.70
2024-01-15T10:17:32.213Z,3.70
2024-01-15T10:19:59.306Z,3.70
2024-01-15T10:22:27.424Z,3.70
2024-01-15T10:24:54.566Z,3.80
2024-01-15T10:27:21.760Z,3.80
2024-01-15T10:29:48.688Z,3.80
2024-01-15T10:32:15.638Z,3.80
2024-01-15T10:34:44.527Z,3.90
2024-01-15T10:37:12.006Z,4.00
2024-01-15T10:39:39.830Z,3.90
2024-01-15T10:42:07.947Z,4.00
2024-01-15T10:44:35.748Z,4.00
2024-01-15T10:47:03.130Z,4.10
2024-01-15T10:49:33.139Z,4.10
2024-01-15T10:52:03.825Z,4.10
2024-01-15T10:54:31.503Z,4.10
2024-01-15T10:56:58.829Z,4.20
2024-01-15T10:59:25.883Z,4.30
2024-01-15T11:01:57.674Z,4.20
2024-01-15T11:04:28.174Z,4.30
2024-01-15T11:06:57.481Z,4.30
2024-01-15T11:09:25.810Z,4.20
2024-01-15T11:12:08.111Z,4.10
2024-01-15T11:14:46.178Z,4.20
2024-01-15T11:17:14.575Z,4.20
2024-01-15T11:19:53.810Z,4.20
2024-01-15T11:22:33.802Z,4.20
2024-01-15T11:25:14.778Z,4.20
2024-01-15T11:27:49.151Z,4.10
2024-01-15T11:30:16.266Z,4.10
2024-01-15T11:32:44.049Z,4.10
2024-01-15T11:35:12.321Z,4.10
2024-01-15T11:37:58.435Z,4.20
2024-01-15T11:40:35.076Z,4.30
2024-01-15T11:43:03.518Z,4.20
2024-01-15T11:45:32.390Z,4.20
2024-01-15T11:48:13.498Z,4.30
2024-01-15T11:50:46.352Z,4.40
2024-01-15T11:53:28.033Z,4.40
2024-01-15T11:55:59.516Z,4.50
2024-01-15T11:58:26.681Z,4.60
2024-01-15T12:00:54.732Z,4.60
2024-01-15T12:03:23.522Z,4.60
2024-01-15T12:05:51.953Z,4.70
2024-01-15T12:08:23.387Z,4.60
2024-01-15T12:10:50.373Z,4.50
2024-01-15T12:13:18.956Z,4.50
2024-01-15T12:15:47.544Z,4.50
2024-01-15T12:18:16.885Z,4.50
2024-01-15T12:20:45.355Z,4.40
2024-01-15T12:23:12.690Z,4.50
2024-01-15T12:25:40.838Z,4.40
2024-01-15T12:28:08.162Z,4.40
2024-01-15T12:30:37.121Z,4.40
2024-01-15T12:33:05.562Z,4.50
2024-01-15T12:35:32.854Z,4.40
2024-01-15T12:38:03.605Z,4.40
2024-01-15T12:40:31.857Z,4.50
2024-01-15T12:42:58.857Z,4.30
2024-01-15T12:45:25.875Z,4.40
2024-01-15T12:47:53.789Z,4.40
2024-01-15T12:50:21.319Z,4.40
2024-01-15T12:52:48.934Z,4.50
2024-01-15T12:55:16.915Z,4.50
2024-01-15T12:57:44.242Z,4.40
2024-01-15T13:00:16.133Z,4.50
2024-01-15T13:02:45.624Z,4.50
2024-01-15T13:05:14.353Z,4.50
2024-01-15T13:07:42.526Z,4.60
2024-01-15T13:10:13.098Z,4.50
2024-01-15T13:12:42.856Z,4.50
2024-01-15T13:15:15.224Z,4.50
2024-01-15T13:17:44.205Z,4.50
2024-01-15T13:20:13.182Z,4.50
2024-01-15T13:22:41.650Z,4.50
2024-01-15T13:25:10.141Z,4.50
2024-01-15T13:27:38.762Z,4.40
2024-01-15T13:30:08.719Z,4.60
2024-01-15T13:32:36.777Z,4.50
2024-01-15T13:35:06.740Z,4.50
2024-01-15T13:37:33.817Z,4.50
2024-01-15T13:40:00.793Z,4.50
2024-01-15T13:42:28.608Z,4.50
2024-01-15T13:44:55.895Z,4.60
2024-01-15T13:47:23.529Z,4.60
2024-01-15T13:49:50.666Z,4.60
2024-01-15T13:52:17.708Z,4.70
2024-01-15T13:54:49.739Z,4.70
2024-01-15T13:57:19.451Z,4.60
2024-01-15T13:59:47.442Z,4.60
2024-01-15T14:02:17.832Z,4.80
2024-01-15T14:04:48.415Z,4.70
2024-01-15T14:07:15.361Z,4.70
2024-01-15T14:09:43.346Z,4.70
2024-01-15T14:12:10.269Z,4.70
2024-01-15T14:14:37.157Z,4.70
2024-01-15T14:17:05.053Z,4.70
2024-01-15T14:19:32.102Z,4.60
2024-01-15T14:21:59.130Z,4.60
2024-01-15T14:24:26.067Z,4.60
2024-01-15T14:26:52.994Z,4.70
2024-01-15T14:29:21.876Z,4.60
2024-01-15T14:31:49.062Z,4.80
2024-01-15T14:34:16.669Z,4.60
2024-01-15T14:36:43.798Z,4.50
2024-01-15T14:39:10.877Z,4.60
2024-01-15T14:41:37.894Z,4.60
2024-01-15T14:47:52.415Z,4.60
2024-01-15T14:50:19.315Z,4.70
2024-01-15T14:52:47.282Z,4.60
2024-01-15T14:55:14.345Z,4.60
2024-01-15T14:57:41.411Z,4.60
2024-01-15T15:00:09.878Z,4.70
2024-01-15T15:02:42.950Z,4.60
2024-01-15T15:05:11.602Z,4.70
2024-01-15T15:07:38.887Z,4.60
2024-01-15T15:10:06.344Z,4.50
2024-01-15T15:12:33.283Z,4.60
2024-01-15T15:15:07.922Z,4.50
2024-01-15T15:17:37.064Z,4.50
2024-01-15T15:20:04.892Z,4.60
2024-01-15T15:22:32.143Z,4.60
2024-01-15T15:24:59.265Z,4.60
2024-01-15T15:27:28.590Z,4.60
2024-01-15T15:29:55.531Z,4.70
2024-01-15T15:32:22.407Z,4.70
2024-01-15T15:34:49.463Z,4.70
2024-01-15T15:37:18.104Z,4.70
2024-01-15T15:39:45.522Z,4.70
2024-01-15T15:42:14.823Z,4.60
2024-01-15T15:44:47.135Z,4.60
2024-01-15T15:47:17.368Z,4.60
2024-01-15T15:49:44.958Z,4.50
2024-01-15T15:52:12.109Z,4.40
2024-01-15T15:54:39.051Z,4.40
2024-01-15T15:57:06.018Z,4.40
2024-01-15T15:59:32.869Z,4.40
2024-01-15T16:02:00.116Z,4.40
2024-01-15T16:04:27.256Z,4.30
2024-01-15T16:06:55.047Z,4.40
2024-01-15T16:09:22.646Z,4.50
2024-01-15T16:11:50.885Z,4.50
2024-01-15T16:14:19.015Z,4.40
2024-01-15T16:23:12.647Z,4.40
2024-01-15T16:23:25.910Z,4.40
2024-01-15T16:23:41.329Z,4.40
2024-01-15T16:25:08.671Z,4.50
2024-01-15T16:27:35.898Z,4.40
2024-01-15T16:30:05.030Z,4.40
2024-01-15T16:32:35.936Z,4.40
2024-01-15T16:35:03.982Z,4.40
2024-01-15T16:37:30.983Z,4.40
2024-01-15T16:39:58.019Z,4.20
2024-01-15T16:42:25.140Z,4.30
2024-01-15T16:44:52.048Z,4.30
2024-01-15T16:47:19.101Z,4.30
2024-01-15T16:49:46.499Z,4.30
2024-01-15T16:52:13.665Z,4.30
2024-01-15T16:54:40.611Z,4.40
2024-01-15T16:57:07.564Z,4.40
2024-01-15T16:59:34.540Z,4.30
2024-01-15T17:02:02.937Z,4.40
2024-01-15T17:04:30.355Z,4.30
2024-01-15T17:06:57.730Z,4.40
2024-01-15T17:09:24.948Z,4.40
2024-01-15T17:11:52.235Z,4.40
2024-01-15T17:14:19.801Z,4.40
2024-01-15T17:16:47.664Z,4.40
2024-01-15T17:19:14.958Z,4.40
2024-01-15T17:21:41.975Z,4.40
2024-01-15T17:24:09.567Z,4.30
2024-01-15T17:26:38.443Z,4.30
2024-01-15T17:29:06.080Z,4.30
2024-01-15T17:31:34.260Z,4.30
2024-01-15T17:34:01.969Z,4.40
2024-01-15T17:36:29.627Z,4.40
2024-01-15T17:38:59.026Z,4.40
2024-01-15T17:41:26.516Z,4.40
2024-01-15T17:43:53.874Z,4.30
2024-01-15T17:46:21.361Z,4.40
2024-01-15T17:48:49.340Z,4.50
2024-01-15T17:51:20.145Z,4.40
2024-01-15T17:53:48.137Z,4.40
2024-01-15T17:56:16.784Z,4.40
2024-01-15T17:58:44.516Z,4.40
2024-01-15T18:01:12.129Z,4.50
2024-01-15T18:03:40.443Z,4.50
2024-01-15T18:06:07.904Z,4.40
2024-01-15T18:08:34.928Z,4.40
2024-01-15T18:11:02.038Z,4.30
2024-01-15T18:13:28.935Z,4.30
2024-01-15T18:15:58.800Z,4.30
2024-01-15T18:18:26.745Z,4.40
2024-01-15T18:20:53.820Z,4.40
2024-01-15T18:23:20.754Z,4.30
2024-01-15T18:25:47.709Z,4.30
2024-01-15T18:28:15.840Z,4.30
2024-01-15T18:30:42.784Z,4.30
2024-01-15T18:33:09.791Z,4.20
2024-01-15T18:35:37.264Z,4.30
2024-01-15T18:38:05.903Z,4.30
2024-01-15T18:40:36.150Z,4.40
2024-01-15T18:43:03.113Z,4.40
2024-01-15T18:45:30.048Z,4.30
2024-01-15T18:47:57.157Z,4.30
2024-01-15T18:50:24.199Z,4.40
2024-01-15T18:52:54.104Z,4.40
2024-01-15T18:55:22.369Z,4.40
2024-01-15T18:57:49.717Z,4.30
2024-01-15T19:00:17.156Z,4.30
2024-01-15T19:02:44.227Z,4.30
2024-01-15T19:05:12.921Z,4.20
2024-01-15T19:07:40.039Z,4.20
2024-01-15T19:10:08.348Z,4.10
2024-01-15T19:12:35.308Z,4.20
2024-01-15T19:15:03.088Z,4.20
2024-01-15T19:17:30.029Z,4.10
2024-01-15T19:19:57.388Z,4.10
2024-01-15T19:22:24.425Z,4.10
2024-01-15T19:24:51.675Z,4.20
2024-01-15T19:27:19.534Z,4.20
2024-01-15T19:29:46.461Z,4.20
2024-01-15T19:32:13.427Z,4.30
2024-01-15T19:34:41.619Z,4.20
2024-01-15T19:37:08.608Z,4.20
2024-01-15T19:39:35.481Z,4.20
2024-01-15T19:42:02.661Z,4.30
2024-01-15T19:44:29.691Z,4.30
2024-01-15T19:46:56.568Z,4.30
2024-01-15T19:49:23.404Z,4.30
2024-01-15T19:51:50.268Z,4.20
2024-01-15T19:54:19.119Z,4.30
2024-01-15T19:56:46.154Z,4.30
2024-01-15T19:59:13.182Z,4.40
2024-01-15T20:01:40.299Z,4.20
2024-01-15T20:04:08.126Z,4.30
2024-01-15T20:06:35.767Z,4.30
2024-01-15T20:09:02.743Z,4.20
2024-01-15T20:11:30.187Z,4.30
2024-01-15T20:13:57.205Z,4.30
2024-01-15T20:16:25.314Z,4.20
2024-01-15T20:18:52.638Z,4.30
2024-01-15T20:21:19.707Z,4.40
2024-01-15T20:23:54.916Z,4.30
2024-01-15T20:26:26.007Z,4.30
2024-01-15T20:28:54.090Z,4.40
2024-01-15T20:31:21.167Z,4.30
2024-01-15T20:33:48.165Z,4.30
2024-01-15T20:36:15.258Z,4.20
2024-01-15T20:38:42.316Z,4.30
2024-01-15T20:41:09.860Z,4.20
2024-01-15T20:43:37.302Z,4.30
2024-01-15T20:46:04.331Z,4.30
2024-01-15T20:48:31.495Z,4.30
2024-01-15T20:50:59.221Z,4.20
2024-01-15T20:53:26.581Z,4.20
2024-01-15T20:56:03.944Z,4.20
2024-01-15T20:58:31.206Z,4.30
2024-01-15T21:00:59.494Z,4.30
2024-01-15T21:03:26.519Z,4.30
2024-01-15T21:05:54.057Z,4.20
2024-01-15T21:08:21.312Z,4.20
2024-01-15T21:10:48.213Z,4.20
2024-01-15T21:13:15.081Z,4.30
2024-01-15T21:15:42.112Z,4.30
2024-01-15T21:18:09.113Z,4.30
2024-01-15T21:20:36.413Z,4.20
2024-01-15T21:23:04.187Z,4.30
2024-01-15T21:25:31.665Z,4.30
2024-01-15T21:27:58.537Z,4.30
2024-01-15T21:30:25.385Z,4.30
2024-01-15T21:32:52.373Z,4.20
2024-01-15T21:35:19.413Z,4.20
2024-01-15T21:37:46.333Z,4.30
2024-01-15T21:40:13.309Z,4.20
2024-01-15T21:42:41.114Z,4.20
2024-01-15T21:45:09.244Z,4.10
2024-01-15T21:47:39.138Z,4.20
2024-01-15T21:50:08.664Z,4.20
2024-01-15T21:52:36.570Z,4.20
2024-01-15T21:55:03.717Z,4.10
2024-01-15T21:57:30.775Z,4.10
2024-01-15T21:59:57.887Z,4.10
2024-01-15T22:02:24.882Z,4.00
2024-01-15T22:04:51.784Z,3.90
2024-01-15T22:07:18.622Z,4.10
2024-01-15T22:09:45.512Z,4.10
2024-01-15T22:12:12.420Z,4.10
2024-01-15T22:14:39.849Z,4.20
2024-01-15T22:17:07.017Z,4.20
2024-01-15T22:19:35.089Z,4.20
2024-01-15T22:22:02.115Z,4.20
2024-01-15T22:24:28.977Z,4.20
2024-01-15T22:26:55.985Z,4.20
2024-01-15T22:29:22.863Z,4.30
2024-01-15T22:31:49.783Z,4.20
2024-01-15T22:34:18.768Z,4.30
2024-01-15T22:36:45.876Z,4.20
2024-01-15T22:39:14.577Z,4.30
2024-01-15T22:41:41.589Z,4.20
2024-01-15T22:44:08.623Z,4.20
2024-01-15T22:46:38.448Z,4.20
2024-01-15T22:49:05.486Z,4.10
2024-01-15T22:51:32.709Z,4.10
2024-01-15T22:53:59.746Z,4.10
2024-01-15T22:56:26.680Z,4.10
2024-01-15T22:58:54.094Z,4.10
2024-01-15T23:01:22.769Z,4.10
2024-01-15T23:03:49.774Z,4.10
2024-01-15T23:06:20.446Z,4.10
2024-01-15T23:08:47.983Z,4.10
2024-01-15T23:11:15.940Z,4.10
2024-01-15T23:13:43.832Z,4.10
2024-01-15T23:16:14.598Z,4.20
2024-01-15T23:18:42.855Z,4.10
2024-01-15T23:21:10.811Z,4.00
2024-01-15T23:23:38.769Z,4.00
2024-01-15T23:26:06.173Z,4.00
2024-01-15T23:28:33.664Z,4.00
2024-01-15T23:31:01.921Z,4.10
2024-01-15T23:33:29.476Z,4.00
2024-01-15T23:35:57.460Z,4.00
2024-01-15T23:38:24.706Z,4.10
2024-01-15T23:40:51.919Z,4.00
2024-01-15T23:43:19.021Z,4.10
2024-01-15T23:45:49.090Z,4.00
2024-01-15T23:48:18.195Z,4.10
2024-01-15T23:50:45.266Z,4.10
2024-01-15T23:53:12.213Z,4.00
2024-01-15T23:55:39.074Z,4.10
2024-01-15T23:58:05.937Z,4.30
